sensor_id;sensor_type;location;lat;lon;timestamp;temperature;humidity
33699;DHT22;20032;52.436;13.312;2023-08-24T00:01:37;18.80;99.90
33699;DHT22;20032;52.436;13.312;2023-08-24T00:04:03;18.80;99.90
33699;DHT22;20032;52.436;13.312;2023-08-24T00:06:28;18.80;99.90
33699;DHT22;20032;52.436;13.312;2023-08-24T00:08:54;18.80;99.90
33699;DHT22;20032;52.436;13.312;2023-08-24T00:11:19;18.80;99.90
33699;DHT22;20032;52.436;13.312;2023-08-24T00:13:45;18.80;99.90
33699;DHT22;20032;52.436;13.312;2023-08-24T00:16:16;18.80;99.90
33699;DHT22;20032;52.436;13.312;2023-08-24T00:18:42;18.80;99.90
33699;DHT22;20032;52.436;13.312;2023-08-24T00:21:08;18.80;99.90
33699;DHT22;20032;52.436;13.312;2023-08-24T00:23:33;18.70;99.90
33699;DHT22;20032;52.436;13.312;2023-08-24T00:25:59;18.70;99.90
33699;DHT22;20032;52.436;13.312;2023-08-24T00:28:25;18.70;99.90
33699;DHT22;20032;52.436;13.312;2023-08-24T00:30:51;18.70;99.90
33699;DHT22;20032;52.436;13.312;2023-08-24T00:33:16;18.70;99.90
33699;DHT22;20032;52.436;13.312;2023-08-24T00:35:42;18.70;99.90
33699;DHT22;20032;52.436;13.312;2023-08-24T00:38:07;18.70;99.90
33699;DHT22;20032;52.436;13.312;2023-08-24T00:40:33;18.70;99.90
33699;DHT22;20032;52.436;13.312;2023-08-24T00:42:59;18.70;99.90
33699;DHT22;20032;52.436;13.312;2023-08-24T00:45:25;18.70;99.90
33699;DHT22;20032;52.436;13.312;2023-08-24T00:47:51;18.70;99.90
33699;DHT22;20032;52.436;13.312;2023-08-24T00:50:17;18.50;99.90
33699;DHT22;20032;52.436;13.312;2023-08-24T00:52:43;18.50;99.90
33699;DHT22;20032;52.436;13.312;2023-08-24T00:55:09;18.50;99.90
33699;DHT22;20032;52.436;13.312;2023-08-24T00:57:37;18.40;99.90
33699;DHT22;20032;52.436;13.312;2023-08-24T01:00:04;18.40;99.90
33699;DHT22;20032;52.436;13.312;2023-08-24T01:02:31;18.40;99.90
33699;DHT22;20032;52.436;13.312;2023-08-24T01:04:57;18.30;99.90
33699;DHT22;20032;52.436;13.312;2023-08-24T01:07:23;18.20;99.90
33699;DHT22;20032;52.436;13.312;2023-08-24T01:09:48;18.30;99.90
33699;DHT22;20032;52.436;13.312;2023-08-24T01:13:38;18.30;99.90
33699;DHT22;20032;52.436;13.312;2023-08-24T01:15:29;18.30;99.90
33699;DHT22;20032;52.436;13.312;2023-08-24T01:18:03;18.20;99.90
33699;DHT22;20032;52.436;13.312;2023-08-24T01:23:27;18.20;99.90
33699;DHT22;20032;52.436;13.312;2023-08-24T01:26:16;18.20;99.90
33699;DHT22;20032;52.436;13.312;2023-08-24T01:28:43;18.10;99.90
33699;DHT22;20032;52.436;13.312;2023-08-24T01:31:09;18.10;99.90
33699;DHT22;20032;52.436;13.312;2023-08-24T01:33:34;18.10;99.90
33699;DHT22;20032;52.436;13.312;2023-08-24T01:36:00;18.10;99.90
33699;DHT22;20032;52.436;13.312;2023-08-24T01:38:26;18.10;99.90
33699;DHT22;20032;52.436;13.312;2023-08-24T01:41:13;18.10;99.90
33699;DHT22;20032;52.436;13.312;2023-08-24T01:43:44;18.10;99.90
33699;DHT22;20032;52.436;13.312;2023-08-24T01:46:14;18.00;99.90
33699;DHT22;20032;52.436;13.312;2023-08-24T01:48:41;18.00;99.90
33699;DHT22;20032;52.436;13.312;2023-08-24T01:51:07;18.00;99.90
33699;DHT22;20032;52.436;13.312;2023-08-24T01:53:33;18.00;99.90
33699;DHT22;20032;52.436;13.312;2023-08-24T01:55:59;18.00;99.90
33699;DHT22;20032;52.436;13.312;2023-08-24T01:58:24;18.10;99.90
33699;DHT22;20032;52.436;13.312;2023-08-24T02:00:50;18.20;99.90
33699;DHT22;20032;52.436;13.312;2023-08-24T02:03:15;18.30;99.90
33699;DHT22;20032;52.436;13.312;2023-08-24T02:05:41;18.30;99.90
33699;DHT22;20032;52.436;13.312;2023-08-24T02:08:06;18.20;99.90
33699;DHT22;20032;52.436;13.312;2023-08-24T02:10:32;18.30;99.90
33699;DHT22;20032;52.436;13.312;2023-08-24T02:12:57;18.30;99.90
33699;DHT22;20032;52.436;13.312;2023-08-24T02:15:23;18.20;99.90
33699;DHT22;20032;52.436;13.312;2023-08-24T02:17:48;18.20;99.90
33699;DHT22;20032;52.436;13.312;2023-08-24T02:20:14;18.20;99.90
33699;DHT22;20032;52.436;13.312;2023-08-24T02:22:39;18.30;99.90
33699;DHT22;20032;52.436;13.312;2023-08-24T02:25:05;18.40;99.90
33699;DHT22;20032;52.436;13.312;2023-08-24T02:27:32;18.60;99.90
33699;DHT22;20032;52.436;13.312;2023-08-24T02:29:57;18.60;99.90
33699;DHT22;20032;52.436;13.312;2023-08-24T02:32:23;18.60;99.90
33699;DHT22;20032;52.436;13.312;2023-08-24T02:34:48;18.50;99.90
33699;DHT22;20032;52.436;13.312;2023-08-24T02:37:14;18.30;99.90
33699;DHT22;20032;52.436;13.312;2023-08-24T02:39:39;18.30;99.90
33699;DHT22;20032;52.436;13.312;2023-08-24T02:42:05;18.30;99.90
33699;DHT22;20032;52.436;13.312;2023-08-24T02:44:30;18.30;99.90
33699;DHT22;20032;52.436;13.312;2023-08-24T02:46:56;18.30;99.90
33699;DHT22;20032;52.436;13.312;2023-08-24T02:49:22;18.40;99.90
33699;DHT22;20032;52.436;13.312;2023-08-24T02:51:48;18.40;99.90
33699;DHT22;20032;52.436;13.312;2023-08-24T02:54:14;18.40;99.90
33699;DHT22;20032;52.436;13.312;2023-08-24T02:56:39;18.50;99.90
33699;DHT22;20032;52.436;13.312;2023-08-24T02:59:05;18.60;99.90
33699;DHT22;20032;52.436;13.312;2023-08-24T03:01:30;18.50;99.90
33699;DHT22;20032;52.436;13.312;2023-08-24T03:03:55;18.50;99.90
33699;DHT22;20032;52.436;13.312;2023-08-24T03:06:21;18.40;99.90
33699;DHT22;20032;52.436;13.312;2023-08-24T03:08:49;18.40;99.90
33699;DHT22;20032;52.436;13.312;2023-08-24T03:11:14;18.40;99.90
33699;DHT22;20032;52.436;13.312;2023-08-24T03:13:40;18.50;99.90
33699;DHT22;20032;52.436;13.312;2023-08-24T03:16:06;18.50;99.90
33699;DHT22;20032;52.436;13.312;2023-08-24T03:18:32;18.50;99.90
33699;DHT22;20032;52.436;13.312;2023-08-24T03:20:57;18.60;99.90
33699;DHT22;20032;52.436;13.312;2023-08-24T03:23:23;18.70;99.90
33699;DHT22;20032;52.436;13.312;2023-08-24T03:25:48;18.80;99.90
33699;DHT22;20032;52.436;13.312;2023-08-24T03:28:14;18.80;99.90
33699;DHT22;20032;52.436;13.312;2023-08-24T03:30:47;18.80;99.90
33699;DHT22;20032;52.436;13.312;2023-08-24T03:33:13;18.80;99.90
33699;DHT22;20032;52.436;13.312;2023-08-24T03:35:39;18.70;99.90
33699;DHT22;20032;52.436;13.312;2023-08-24T03:38:05;18.60;99.90
33699;DHT22;20032;52.436;13.312;2023-08-24T03:40:30;18.60;99.90
33699;DHT22;20032;52.436;13.312;2023-08-24T03:42:56;18.60;99.90
33699;DHT22;20032;52.436;13.312;2023-08-24T03:45:22;18.60;99.90
33699;DHT22;20032;52.436;13.312;2023-08-24T03:47:48;18.70;99.90
33699;DHT22;20032;52.436;13.312;2023-08-24T03:50:14;18.70;99.90
33699;DHT22;20032;52.436;13.312;2023-08-24T03:52:39;18.50;99.90
33699;DHT22;20032;52.436;13.312;2023-08-24T03:55:06;18.60;99.90
33699;DHT22;20032;52.436;13.312;2023-08-24T03:57:32;18.50;99.90
33699;DHT22;20032;52.436;13.312;2023-08-24T03:59:57;18.50;99.90
33699;DHT22;20032;52.436;13.312;2023-08-24T04:02:23;18.40;99.90
33699;DHT22;20032;52.436;13.312;2023-08-24T04:04:50;18.40;99.90
33699;DHT22;20032;52.436;13.312;2023-08-24T04:07:15;18.40;99.90
33699;DHT22;20032;52.436;13.312;2023-08-24T04:09:40;18.40;99.90
33699;DHT22;20032;52.436;13.312;2023-08-24T04:12:06;18.40;99.90
33699;DHT22;20032;52.436;13.312;2023-08-24T04:14:32;18.30;99.90
33699;DHT22;20032;52.436;13.312;2023-08-24T04:16:57;18.40;99.90
33699;DHT22;20032;52.436;13.312;2023-08-24T04:19:23;18.40;99.90
33699;DHT22;20032;52.436;13.312;2023-08-24T04:21:48;18.40;99.90
33699;DHT22;20032;52.436;13.312;2023-08-24T04:24:14;18.40;99.90
33699;DHT22;20032;52.436;13.312;2023-08-24T04:26:39;18.50;99.90
33699;DHT22;20032;52.436;13.312;2023-08-24T04:29:04;18.50;99.90
33699;DHT22;20032;52.436;13.312;2023-08-24T04:31:30;18.50;99.90
33699;DHT22;20032;52.436;13.312;2023-08-24T04:33:55;18.50;99.90
33699;DHT22;20032;52.436;13.312;2023-08-24T04:36:21;18.50;99.90
33699;DHT22;20032;52.436;13.312;2023-08-24T04:38:46;18.50;99.90
33699;DHT22;20032;52.436;13.312;2023-08-24T04:41:12;18.60;99.90
33699;DHT22;20032;52.436;13.312;2023-08-24T04:43:37;18.50;99.90
33699;DHT22;20032;52.436;13.312;2023-08-24T04:46:03;18.50;99.90
33699;DHT22;20032;52.436;13.312;2023-08-24T04:48:29;18.60;99.90
33699;DHT22;20032;52.436;13.312;2023-08-24T04:51:02;18.60;99.90
33699;DHT22;20032;52.436;13.312;2023-08-24T04:53:28;18.70;99.90
33699;DHT22;20032;52.436;13.312;2023-08-24T04:55:53;18.80;99.90
33699;DHT22;20032;52.436;13.312;2023-08-24T04:58:19;18.80;99.90
33699;DHT22;20032;52.436;13.312;2023-08-24T05:00:44;18.70;99.90
33699;DHT22;20032;52.436;13.312;2023-08-24T05:03:10;18.80;99.90
33699;DHT22;20032;52.436;13.312;2023-08-24T05:05:36;18.70;99.90
33699;DHT22;20032;52.436;13.312;2023-08-24T05:08:03;18.70;99.90
33699;DHT22;20032;52.436;13.312;2023-08-24T05:10:32;18.80;99.90
33699;DHT22;20032;52.436;13.312;2023-08-24T05:12:58;18.80;99.90
33699;DHT22;20032;52.436;13.312;2023-08-24T05:15:24;18.80;99.90
33699;DHT22;20032;52.436;13.312;2023-08-24T05:17:49;18.80;99.90
33699;DHT22;20032;52.436;13.312;2023-08-24T05:20:17;18.90;99.90
33699;DHT22;20032;52.436;13.312;2023-08-24T05:22:43;19.00;99.90
33699;DHT22;20032;52.436;13.312;2023-08-24T05:25:09;19.10;99.90
33699;DHT22;20032;52.436;13.312;2023-08-24T05:27:34;19.10;99.90
33699;DHT22;20032;52.436;13.312;2023-08-24T05:30:00;19.10;99.90
33699;DHT22;20032;52.436;13.312;2023-08-24T05:32:25;19.10;99.90
33699;DHT22;20032;52.436;13.312;2023-08-24T05:34:51;19.10;99.90
33699;DHT22;20032;52.436;13.312;2023-08-24T05:37:16;19.10;99.90
33699;DHT22;20032;52.436;13.312;2023-08-24T05:39:42;19.20;99.90
33699;DHT22;20032;52.436;13.312;2023-08-24T05:42:08;19.20;99.90
33699;DHT22;20032;52.436;13.312;2023-08-24T05:44:34;19.30;99.90
33699;DHT22;20032;52.436;13.312;2023-08-24T05:46:59;19.30;99.90
33699;DHT22;20032;52.436;13.312;2023-08-24T05:49:25;19.30;99.90
33699;DHT22;20032;52.436;13.312;2023-08-24T05:51:51;19.40;99.90
33699;DHT22;20032;52.436;13.312;2023-08-24T05:54:17;19.40;99.90
33699;DHT22;20032;52.436;13.312;2023-08-24T05:56:45;19.40;99.90
33699;DHT22;20032;52.436;13.312;2023-08-24T05:59:11;19.40;99.90
33699;DHT22;20032;52.436;13.312;2023-08-24T06:01:38;19.40;99.90
33699;DHT22;20032;52.436;13.312;2023-08-24T06:04:05;19.40;99.90
33699;DHT22;20032;52.436;13.312;2023-08-24T06:06:31;19.50;99.90
33699;DHT22;20032;52.436;13.312;2023-08-24T06:08:56;19.60;99.90
33699;DHT22;20032;52.436;13.312;2023-08-24T06:11:22;19.60;99.90
33699;DHT22;20032;52.436;13.312;2023-08-24T06:13:49;19.70;99.90
33699;DHT22;20032;52.436;13.312;2023-08-24T06:16:14;19.70;99.90
33699;DHT22;20032;52.436;13.312;2023-08-24T06:18:40;19.80;99.90
33699;DHT22;20032;52.436;13.312;2023-08-24T06:21:05;19.90;99.90
33699;DHT22;20032;52.436;13.312;2023-08-24T06:23:31;19.90;99.90
33699;DHT22;20032;52.436;13.312;2023-08-24T06:25:56;20.00;99.90
33699;DHT22;20032;52.436;13.312;2023-08-24T06:28:22;20.10;99.90
33699;DHT22;20032;52.436;13.312;2023-08-24T06:30:47;20.20;99.90
33699;DHT22;20032;52.436;13.312;2023-08-24T06:33:13;20.30;99.90
33699;DHT22;20032;52.436;13.312;2023-08-24T06:35:39;20.40;99.90
33699;DHT22;20032;52.436;13.312;2023-08-24T06:38:05;20.30;99.90
33699;DHT22;20032;52.436;13.312;2023-08-24T06:40:31;20.40;99.90
33699;DHT22;20032;52.436;13.312;2023-08-24T06:42:57;20.40;99.90
33699;DHT22;20032;52.436;13.312;2023-08-24T06:45:22;20.60;99.90
33699;DHT22;20032;52.436;13.312;2023-08-24T06:47:48;20.70;99.90
33699;DHT22;20032;52.436;13.312;2023-08-24T06:50:14;20.80;99.90
33699;DHT22;20032;52.436;13.312;2023-08-24T06:52:40;20.90;99.90
33699;DHT22;20032;52.436;13.312;2023-08-24T06:55:08;21.00;99.90
33699;DHT22;20032;52.436;13.312;2023-08-24T06:57:33;21.10;99.90
33699;DHT22;20032;52.436;13.312;2023-08-24T06:59:59;21.10;99.90
33699;DHT22;20032;52.436;13.312;2023-08-24T07:02:25;21.30;99.90
33699;DHT22;20032;52.436;13.312;2023-08-24T07:04:50;21.30;99.90
33699;DHT22;20032;52.436;13.312;2023-08-24T07:07:16;21.30;99.90
33699;DHT22;20032;52.436;13.312;2023-08-24T07:09:41;21.40;99.90
33699;DHT22;20032;52.436;13.312;2023-08-24T07:12:07;21.40;99.90
33699;DHT22;20032;52.436;13.312;2023-08-24T07:14:35;21.50;99.90
33699;DHT22;20032;52.436;13.312;2023-08-24T07:17:01;21.60;99.90
33699;DHT22;20032;52.436;13.312;2023-08-24T07:19:26;21.60;99.90
33699;DHT22;20032;52.436;13.312;2023-08-24T07:21:52;21.70;99.90
33699;DHT22;20032;52.436;13.312;2023-08-24T07:24:18;21.80;99.90
33699;DHT22;20032;52.436;13.312;2023-08-24T07:26:46;21.90;99.90
33699;DHT22;20032;52.436;13.312;2023-08-24T07:29:12;22.00;99.90
33699;DHT22;20032;52.436;13.312;2023-08-24T07:31:37;22.00;99.90
33699;DHT22;20032;52.436;13.312;2023-08-24T07:34:04;22.10;99.90
33699;DHT22;20032;52.436;13.312;2023-08-24T07:36:30;22.10;99.90
33699;DHT22;20032;52.436;13.312;2023-08-24T07:38:56;22.20;99.90
33699;DHT22;20032;52.436;13.312;2023-08-24T07:41:21;22.30;99.90
33699;DHT22;20032;52.436;13.312;2023-08-24T07:43:47;22.40;99.90
33699;DHT22;20032;52.436;13.312;2023-08-24T07:46:13;22.40;99.90
33699;DHT22;20032;52.436;13.312;2023-08-24T07:48:38;22.50;99.90
33699;DHT22;20032;52.436;13.312;2023-08-24T07:51:04;22.60;99.90
33699;DHT22;20032;52.436;13.312;2023-08-24T07:53:30;22.70;99.90
33699;DHT22;20032;52.436;13.312;2023-08-24T07:55:58;22.80;99.90
33699;DHT22;20032;52.436;13.312;2023-08-24T07:58:24;22.90;99.90
33699;DHT22;20032;52.436;13.312;2023-08-24T08:00:50;23.00;99.90
33699;DHT22;20032;52.436;13.312;2023-08-24T08:03:18;23.20;99.90
33699;DHT22;20032;52.436;13.312;2023-08-24T08:05:43;23.20;99.90
33699;DHT22;20032;52.436;13.312;2023-08-24T08:08:09;23.30;99.90
33699;DHT22;20032;52.436;13.312;2023-08-24T08:10:34;23.40;99.90
33699;DHT22;20032;52.436;13.312;2023-08-24T08:12:59;23.50;99.90
33699;DHT22;20032;52.436;13.312;2023-08-24T08:15:26;23.60;99.90
33699;DHT22;20032;52.436;13.312;2023-08-24T08:17:51;23.60;99.90
33699;DHT22;20032;52.436;13.312;2023-08-24T08:20:17;23.60;99.90
33699;DHT22;20032;52.436;13.312;2023-08-24T08:22:43;23.60;99.90
33699;DHT22;20032;52.436;13.312;2023-08-24T08:25:08;23.60;99.90
33699;DHT22;20032;52.436;13.312;2023-08-24T08:27:34;23.50;99.90
33699;DHT22;20032;52.436;13.312;2023-08-24T08:29:59;23.60;99.90
33699;DHT22;20032;52.436;13.312;2023-08-24T08:32:25;23.60;99.90
33699;DHT22;20032;52.436;13.312;2023-08-24T08:34:54;23.60;99.90
33699;DHT22;20032;52.436;13.312;2023-08-24T08:37:22;23.60;99.90
33699;DHT22;20032;52.436;13.312;2023-08-24T08:39:47;23.60;99.90
33699;DHT22;20032;52.436;13.312;2023-08-24T08:42:14;23.60;99.90
33699;DHT22;20032;52.436;13.312;2023-08-24T08:44:41;23.60;99.90
33699;DHT22;20032;52.436;13.312;2023-08-24T08:47:11;23.70;99.90
33699;DHT22;20032;52.436;13.312;2023-08-24T08:49:39;23.80;99.90
33699;DHT22;20032;52.436;13.312;2023-08-24T08:52:16;23.80;99.90
33699;DHT22;20032;52.436;13.312;2023-08-24T08:54:42;23.80;99.90
33699;DHT22;20032;52.436;13.312;2023-08-24T08:57:09;23.90;99.90
33699;DHT22;20032;52.436;13.312;2023-08-24T08:59:35;23.90;99.90
33699;DHT22;20032;52.436;13.312;2023-08-24T09:02:02;23.90;99.90
33699;DHT22;20032;52.436;13.312;2023-08-24T09:04:31;23.90;99.90
33699;DHT22;20032;52.436;13.312;2023-08-24T09:06:56;23.90;99.90
33699;DHT22;20032;52.436;13.312;2023-08-24T09:09:22;23.90;99.90
33699;DHT22;20032;52.436;13.312;2023-08-24T09:11:48;23.80;99.90
33699;DHT22;20032;52.436;13.312;2023-08-24T09:14:14;23.80;99.90
33699;DHT22;20032;52.436;13.312;2023-08-24T09:16:41;23.90;99.90
33699;DHT22;20032;52.436;13.312;2023-08-24T09:19:11;24.00;99.90
33699;DHT22;20032;52.436;13.312;2023-08-24T09:21:37;24.10;99.90
33699;DHT22;20032;52.436;13.312;2023-08-24T09:24:03;24.10;99.90
33699;DHT22;20032;52.436;13.312;2023-08-24T09:26:33;24.10;99.90
33699;DHT22;20032;52.436;13.312;2023-08-24T09:29:00;24.10;99.90
33699;DHT22;20032;52.436;13.312;2023-08-24T09:31:35;24.10;99.90
33699;DHT22;20032;52.436;13.312;2023-08-24T09:34:02;24.00;99.90
33699;DHT22;20032;52.436;13.312;2023-08-24T09:36:31;23.90;99.90
33699;DHT22;20032;52.436;13.312;2023-08-24T09:38:58;23.90;99.90
33699;DHT22;20032;52.436;13.312;2023-08-24T09:41:25;23.90;99.90
33699;DHT22;20032;52.436;13.312;2023-08-24T09:44:05;24.10;99.90
33699;DHT22;20032;52.436;13.312;2023-08-24T09:46:31;24.50;99.90
33699;DHT22;20032;52.436;13.312;2023-08-24T09:48:56;24.60;99.90
33699;DHT22;20032;52.436;13.312;2023-08-24T09:51:26;24.80;99.90
33699;DHT22;20032;52.436;13.312;2023-08-24T09:53:52;25.00;99.90
33699;DHT22;20032;52.436;13.312;2023-08-24T09:56:24;25.20;99.90
33699;DHT22;20032;52.436;13.312;2023-08-24T09:58:51;25.40;99.90
33699;DHT22;20032;52.436;13.312;2023-08-24T10:01:19;25.40;99.90
33699;DHT22;20032;52.436;13.312;2023-08-24T10:03:46;25.60;99.90
33699;DHT22;20032;52.436;13.312;2023-08-24T10:06:14;25.70;99.90
33699;DHT22;20032;52.436;13.312;2023-08-24T10:08:43;25.90;99.90
33699;DHT22;20032;52.436;13.312;2023-08-24T10:11:13;26.20;99.90
33699;DHT22;20032;52.436;13.312;2023-08-24T10:13:52;26.40;99.90
33699;DHT22;20032;52.436;13.312;2023-08-24T10:16:23;26.50;99.90
33699;DHT22;20032;52.436;13.312;2023-08-24T10:18:49;26.60;99.90
33699;DHT22;20032;52.436;13.312;2023-08-24T10:21:17;26.70;99.90
33699;DHT22;20032;52.436;13.312;2023-08-24T10:23:43;26.80;99.90
33699;DHT22;20032;52.436;13.312;2023-08-24T10:26:11;26.90;99.90
33699;DHT22;20032;52.436;13.312;2023-08-24T10:28:38;27.30;99.90
33699;DHT22;20032;52.436;13.312;2023-08-24T10:31:05;27.50;99.90
33699;DHT22;20032;52.436;13.312;2023-08-24T10:33:32;27.50;99.90
33699;DHT22;20032;52.436;13.312;2023-08-24T10:35:59;27.70;99.90
33699;DHT22;20032;52.436;13.312;2023-08-24T10:38:28;27.60;99.90
33699;DHT22;20032;52.436;13.312;2023-08-24T10:40:54;27.80;99.90
33699;DHT22;20032;52.436;13.312;2023-08-24T10:43:21;28.00;99.90
33699;DHT22;20032;52.436;13.312;2023-08-24T10:45:55;27.80;99.90
33699;DHT22;20032;52.436;13.312;2023-08-24T10:48:24;28.20;99.90
33699;DHT22;20032;52.436;13.312;2023-08-24T10:51:17;28.30;99.90
33699;DHT22;20032;52.436;13.312;2023-08-24T10:53:45;28.40;99.50
33699;DHT22;20032;52.436;13.312;2023-08-24T10:56:14;28.60;99.40
33699;DHT22;20032;52.436;13.312;2023-08-24T10:58:40;28.70;99.20
33699;DHT22;20032;52.436;13.312;2023-08-24T11:01:05;28.60;98.90
33699;DHT22;20032;52.436;13.312;2023-08-24T11:03:32;28.60;98.70
33699;DHT22;20032;52.436;13.312;2023-08-24T11:05:58;29.00;99.20
33699;DHT22;20032;52.436;13.312;2023-08-24T11:08:44;29.30;98.90
33699;DHT22;20032;52.436;13.312;2023-08-24T11:11:19;29.40;98.30
33699;DHT22;20032;52.436;13.312;2023-08-24T11:14:12;29.30;97.90
33699;DHT22;20032;52.436;13.312;2023-08-24T11:16:39;29.40;97.80
33699;DHT22;20032;52.436;13.312;2023-08-24T11:19:06;29.40;97.40
33699;DHT22;20032;52.436;13.312;2023-08-24T11:21:33;29.60;97.90
33699;DHT22;20032;52.436;13.312;2023-08-24T11:24:00;29.60;97.40
33699;DHT22;20032;52.436;13.312;2023-08-24T11:26:25;29.80;97.10
33699;DHT22;20032;52.436;13.312;2023-08-24T11:28:54;29.70;96.10
33699;DHT22;20032;52.436;13.312;2023-08-24T11:31:21;29.70;96.50
33699;DHT22;20032;52.436;13.312;2023-08-24T11:33:47;29.90;97.40
33699;DHT22;20032;52.436;13.312;2023-08-24T11:36:13;30.40;95.80
33699;DHT22;20032;52.436;13.312;2023-08-24T11:38:40;30.60;95.20
33699;DHT22;20032;52.436;13.312;2023-08-24T11:41:16;30.70;94.90
33699;DHT22;20032;52.436;13.312;2023-08-24T11:43:43;30.60;96.20
33699;DHT22;20032;52.436;13.312;2023-08-24T11:46:09;30.80;95.20
33699;DHT22;20032;52.436;13.312;2023-08-24T11:48:34;31.20;94.50
33699;DHT22;20032;52.436;13.312;2023-08-24T11:51:02;31.50;94.10
33699;DHT22;20032;52.436;13.312;2023-08-24T11:53:28;31.40;94.00
33699;DHT22;20032;52.436;13.312;2023-08-24T11:55:57;31.10;94.60
33699;DHT22;20032;52.436;13.312;2023-08-24T11:58:22;31.50;94.40
33699;DHT22;20032;52.436;13.312;2023-08-24T12:00:48;31.30;94.10
33699;DHT22;20032;52.436;13.312;2023-08-24T12:03:14;31.80;93.50
33699;DHT22;20032;52.436;13.312;2023-08-24T12:05:40;31.80;93.60
33699;DHT22;20032;52.436;13.312;2023-08-24T12:08:05;31.80;93.50
33699;DHT22;20032;52.436;13.312;2023-08-24T12:10:32;31.70;93.30
33699;DHT22;20032;52.436;13.312;2023-08-24T12:13:06;32.10;92.60
33699;DHT22;20032;52.436;13.312;2023-08-24T12:15:34;32.40;92.80
33699;DHT22;20032;52.436;13.312;2023-08-24T12:18:16;32.40;92.30
33699;DHT22;20032;52.436;13.312;2023-08-24T12:20:41;32.10;92.60
33699;DHT22;20032;52.436;13.312;2023-08-24T12:23:10;32.30;92.30
33699;DHT22;20032;52.436;13.312;2023-08-24T12:25:37;32.20;92.00
33699;DHT22;20032;52.436;13.312;2023-08-24T12:28:12;32.50;92.30
33699;DHT22;20032;52.436;13.312;2023-08-24T12:30:53;32.50;92.00
33699;DHT22;20032;52.436;13.312;2023-08-24T12:33:27;32.50;91.80
33699;DHT22;20032;52.436;13.312;2023-08-24T12:35:54;32.70;91.20
33699;DHT22;20032;52.436;13.312;2023-08-24T12:38:21;33.40;91.50
33699;DHT22;20032;52.436;13.312;2023-08-24T12:40:48;33.20;90.60
33699;DHT22;20032;52.436;13.312;2023-08-24T12:43:14;32.90;91.30
33699;DHT22;20032;52.436;13.312;2023-08-24T12:45:40;32.70;90.40
33699;DHT22;20032;52.436;13.312;2023-08-24T12:48:06;32.70;90.80
33699;DHT22;20032;52.436;13.312;2023-08-24T12:50:33;33.10;90.70
33699;DHT22;20032;52.436;13.312;2023-08-24T12:52:58;32.80;90.20
33699;DHT22;20032;52.436;13.312;2023-08-24T12:55:26;32.60;90.40
33699;DHT22;20032;52.436;13.312;2023-08-24T12:57:51;33.20;88.40
33699;DHT22;20032;52.436;13.312;2023-08-24T13:00:18;33.20;90.20
33699;DHT22;20032;52.436;13.312;2023-08-24T13:02:44;33.30;90.20
33699;DHT22;20032;52.436;13.312;2023-08-24T13:05:09;33.50;90.20
33699;DHT22;20032;52.436;13.312;2023-08-24T13:07:35;33.50;89.40
33699;DHT22;20032;52.436;13.312;2023-08-24T13:10:02;33.10;88.90
33699;DHT22;20032;52.436;13.312;2023-08-24T13:12:28;33.30;87.80
33699;DHT22;20032;52.436;13.312;2023-08-24T13:14:55;33.50;88.40
33699;DHT22;20032;52.436;13.312;2023-08-24T13:17:21;33.60;87.20
33699;DHT22;20032;52.436;13.312;2023-08-24T13:19:47;33.70;85.60
33699;DHT22;20032;52.436;13.312;2023-08-24T13:22:14;33.40;86.20
33699;DHT22;20032;52.436;13.312;2023-08-24T13:24:40;33.70;86.50
33699;DHT22;20032;52.436;13.312;2023-08-24T13:27:08;33.80;89.80
33699;DHT22;20032;52.436;13.312;2023-08-24T13:29:36;34.00;87.10
33699;DHT22;20032;52.436;13.312;2023-08-24T13:32:01;34.30;87.40
33699;DHT22;20032;52.436;13.312;2023-08-24T13:34:28;33.90;85.30
33699;DHT22;20032;52.436;13.312;2023-08-24T13:36:53;34.20;85.80
33699;DHT22;20032;52.436;13.312;2023-08-24T13:39:19;34.20;83.30
33699;DHT22;20032;52.436;13.312;2023-08-24T13:41:44;34.20;85.40
33699;DHT22;20032;52.436;13.312;2023-08-24T13:44:10;33.40;84.20
33699;DHT22;20032;52.436;13.312;2023-08-24T13:46:35;33.10;85.20
33699;DHT22;20032;52.436;13.312;2023-08-24T13:49:01;32.70;86.40
33699;DHT22;20032;52.436;13.312;2023-08-24T13:51:27;32.50;86.50
33699;DHT22;20032;52.436;13.312;2023-08-24T13:53:53;32.70;85.60
33699;DHT22;20032;52.436;13.312;2023-08-24T13:56:18;33.10;86.30
33699;DHT22;20032;52.436;13.312;2023-08-24T13:58:44;33.20;84.40
33699;DHT22;20032;52.436;13.312;2023-08-24T14:01:10;32.70;86.50
33699;DHT22;20032;52.436;13.312;2023-08-24T14:03:36;32.60;86.30
33699;DHT22;20032;52.436;13.312;2023-08-24T14:06:03;32.40;87.20
33699;DHT22;20032;52.436;13.312;2023-08-24T14:08:28;32.20;90.00
33699;DHT22;20032;52.436;13.312;2023-08-24T14:10:54;32.20;90.50
33699;DHT22;20032;52.436;13.312;2023-08-24T14:13:19;32.30;91.30
33699;DHT22;20032;52.436;13.312;2023-08-24T14:15:48;32.10;89.30
33699;DHT22;20032;52.436;13.312;2023-08-24T14:18:14;31.90;91.30
33699;DHT22;20032;52.436;13.312;2023-08-24T14:20:39;31.80;91.00
33699;DHT22;20032;52.436;13.312;2023-08-24T14:23:05;31.70;91.10
33699;DHT22;20032;52.436;13.312;2023-08-24T14:25:31;31.70;90.50
33699;DHT22;20032;52.436;13.312;2023-08-24T14:27:56;31.60;91.10
33699;DHT22;20032;52.436;13.312;2023-08-24T14:30:22;31.50;90.70
33699;DHT22;20032;52.436;13.312;2023-08-24T14:32:47;31.10;91.30
33699;DHT22;20032;52.436;13.312;2023-08-24T14:35:13;30.80;91.90
33699;DHT22;20032;52.436;13.312;2023-08-24T14:37:38;30.40;92.50
33699;DHT22;20032;52.436;13.312;2023-08-24T14:40:05;30.20;92.90
33699;DHT22;20032;52.436;13.312;2023-08-24T14:42:32;30.40;92.00
33699;DHT22;20032;52.436;13.312;2023-08-24T14:44:57;30.60;93.20
33699;DHT22;20032;52.436;13.312;2023-08-24T14:47:23;30.90;92.00
33699;DHT22;20032;52.436;13.312;2023-08-24T14:49:49;31.40;91.00
33699;DHT22;20032;52.436;13.312;2023-08-24T14:52:15;31.60;91.60
33699;DHT22;20032;52.436;13.312;2023-08-24T14:54:41;31.20;91.50
33699;DHT22;20032;52.436;13.312;2023-08-24T14:57:06;30.90;92.00
33699;DHT22;20032;52.436;13.312;2023-08-24T14:59:32;30.70;91.60
33699;DHT22;20032;52.436;13.312;2023-08-24T15:01:59;30.30;92.00
33699;DHT22;20032;52.436;13.312;2023-08-24T15:04:26;30.20;92.10
33699;DHT22;20032;52.436;13.312;2023-08-24T15:06:52;30.40;91.60
33699;DHT22;20032;52.436;13.312;2023-08-24T15:09:19;30.30;91.50
33699;DHT22;20032;52.436;13.312;2023-08-24T15:11:44;30.50;91.50
33699;DHT22;20032;52.436;13.312;2023-08-24T15:14:11;31.00;91.20
33699;DHT22;20032;52.436;13.312;2023-08-24T15:16:37;31.20;90.40